Main page
METAR-TAF:

METAR-TAF

Airports :

Pohnpei International Airport

Pohnpei, Micronesia

latitude: 06-59N, longitude: 158-12E, elevation: 2 m

Current weather observation

The report was made 12 hours and 29 minutes ago, at 06:55 UTC
Wind 6 kt from the East/Northeast
Temperature 30°C
Humidity 75%
Pressure 1010 hPa
Visibility: 24.1 km
Broken clouds at a height of 1800 ft, Towering cumulus.
Overcast at a height of 30000 ft

METAR: PTPN 180655Z 07006KT 15SM BKN018TCU OVC300 30/25 A2983 RMK TCU OHD AND N-SE LAST

Time: 06:24 (19:24 UTC)

Forecast

The report was made 13 hours and 45 minutes ago, at 05:39 UTC
Forecast valid from 18 at 06 UTC to 19 at 06 UTC
Wind 7 kt from the East/Northeast
Visibility: 10 km
Scattered clouds at a height of 1800 ft
Scattered clouds at a height of 13000 ft
showers in vicinity

TAF: PTPN 180539Z 1806/1906 07007KT P6SM VCSH SCT018 SCT130

Weather observations and forecasts of more than 4000 airports (METAR and TAF reports).

The available stations are represented by yellow and red dots on the map.

Hover mouse over dot to see the name of the station.

Then click to see weather observations and forecasts.

To change the map : click on the green buttons with a black cross to zoom in, on the green button with a dash to zoom out, or on the green arrows for adjacent maps.


METAR-TAF: